Main page
METAR-TAF:

METAR-TAF

Airports :

Sohag International Airport

Sohag, Egypt

latitude: 26-20-25N, longitude: 31-44-20E, elevation: 70 m

Current weather observation

The report was made 1 hour and 3 minutes ago, at 03:00 UTC
Wind 9 kt from the West
Temperature 27°C
Humidity 30%
Pressure 1008 hPa
Visibility 10 km or more
no clouds below 1500 m and no cumulonimbus

METAR: HESG 250300Z 27009KT CAVOK 27/08 Q1008 NOSIG

Time: 06:03 (04:03 UTC)

Forecast

The report was made 5 hours and 3 minutes ago, at 23:00 UTC
Forecast valid from 25 at 00 UTC to 26 at 06 UTC
Wind 12 kt from the North/Northwest
Visibility 10 km or more
no clouds below 1500 m and no cumulonimbus

TAF: HESG 242300Z 2500/2606 33012KT CAVOK

Weather observations and forecasts of more than 4000 airports (METAR and TAF reports).

The available stations are represented by yellow and red dots on the map.

Hover mouse over dot to see the name of the station.

Then click to see weather observations and forecasts.

To change the map : click on the green buttons with a black cross to zoom in, on the green button with a dash to zoom out, or on the green arrows for adjacent maps.


METAR-TAF: